Time;durP1;ratioP1;P1;durP2;ratioP2;P2;SDS_P1;SDS_P2;PMS_P1;PMS_P2;Temp;Humidity;BMP_temperature;BMP_pressure;BME280_temperature;BME280_humidity;BME280_pressure;Samples;Min_cycle;Max_cycle;Signal;HPM_P1;HPM_P2
2023/12/28 00:01:09;;;;;;;;;6.00;5.33;;;;;;;;5062291;28;30104;-77
2023/12/28 00:03:34;;;;;;;;;6.67;3.67;;;;;;;;5064428;28;28554;-78
2023/12/28 00:05:59;;;;;;;;;8.33;7.33;;;;;;;;5050558;28;28831;-76
2023/12/28 00:08:25;;;;;;;;;11.00;11.00;;;;;;;;5054082;28;28541;-79
2023/12/28 00:10:50;;;;;;;;;8.33;7.33;;;;;;;;5069542;28;28544;-79
2023/12/28 00:13:16;;;;;;;;;8.00;7.00;;;;;;;;5067707;28;28410;-79
2023/12/28 00:15:41;;;;;;;;;8.00;8.00;;;;;;;;5068353;28;28795;-78
2023/12/28 00:18:06;;;;;;;;;5.00;5.00;;;;;;;;5068089;28;28527;-79
2023/12/28 00:20:31;;;;;;;;;9.33;8.33;;;;;;;;5073980;28;28794;-79
2023/12/28 00:22:58;;;;;;;;;9.33;7.33;;;;;;;;5078109;28;28503;-77
2023/12/28 00:25:23;;;;;;;;;7.00;7.00;;;;;;;;5085477;28;29086;-78
2023/12/28 00:27:48;;;;;;;;;4.00;4.00;;;;;;;;5066582;28;28863;-78
2023/12/28 00:30:14;;;;;;;;;10.33;6.33;;;;;;;;5066537;28;28483;-79
2023/12/28 00:32:43;;;;;;;;;9.00;6.67;;;;;;;;5067290;28;28777;-79
2023/12/28 00:35:08;;;;;;;;;12.67;9.00;;;;;;;;5066809;28;28517;-80
2023/12/28 00:37:33;;;;;;;;;6.67;4.33;;;;;;;;5049187;28;29568;-79
2023/12/28 00:39:58;;;;;;;;;7.33;7.33;;;;;;;;5067253;28;28798;-78
2023/12/28 00:42:24;;;;;;;;;6.00;5.00;;;;;;;;5067348;28;28459;-77
2023/12/28 00:44:49;;;;;;;;;7.00;6.33;;;;;;;;5067404;28;28452;-78
2023/12/28 00:47:14;;;;;;;;;4.67;4.67;;;;;;;;5048614;28;29189;-78
2023/12/28 00:49:39;;;;;;;;;9.33;8.67;;;;;;;;5067750;28;28442;-79
2023/12/28 00:52:05;;;;;;;;;5.67;5.67;;;;;;;;5069111;28;28452;-79
2023/12/28 00:54:30;;;;;;;;;8.33;7.33;;;;;;;;5057161;28;28624;-78
2023/12/28 00:56:55;;;;;;;;;8.33;5.33;;;;;;;;5068652;28;28562;-78
2023/12/28 00:59:20;;;;;;;;;7.67;6.00;;;;;;;;5071771;28;28574;-76
2023/12/28 01:01:46;;;;;;;;;5.67;5.67;;;;;;;;5086122;28;28491;-79
2023/12/28 01:04:11;;;;;;;;;11.00;8.00;;;;;;;;5064355;28;28524;-79
2023/12/28 01:06:36;;;;;;;;;13.33;11.00;;;;;;;;5068296;28;28463;-79
2023/12/28 01:09:01;;;;;;;;;10.67;9.33;;;;;;;;5066927;28;28928;-79
2023/12/28 01:11:27;;;;;;;;;7.00;7.00;;;;;;;;5063181;28;28587;-80
2023/12/28 01:13:53;;;;;;;;;22.00;17.67;;;;;;;;5065383;28;28421;-78
2023/12/28 01:16:18;;;;;;;;;8.67;7.33;;;;;;;;5078315;28;28742;-80
2023/12/28 01:18:43;;;;;;;;;4.00;4.00;;;;;;;;5049320;28;29378;-77
2023/12/28 01:21:09;;;;;;;;;7.67;6.67;;;;;;;;5065514;28;28482;-78
2023/12/28 01:23:34;;;;;;;;;9.67;6.67;;;;;;;;5065959;28;28553;-78
2023/12/28 01:25:59;;;;;;;;;5.67;5.67;;;;;;;;5066452;28;28742;-78
2023/12/28 01:28:24;;;;;;;;;5.33;3.67;;;;;;;;5066072;28;28800;-78
2023/12/28 01:30:50;;;;;;;;;7.67;6.33;;;;;;;;5065600;28;28964;-79
2023/12/28 01:33:15;;;;;;;;;8.33;6.67;;;;;;;;5067132;28;28806;-79
2023/12/28 01:35:41;;;;;;;;;9.67;7.00;;;;;;;;5067474;28;28600;-78
2023/12/28 01:38:06;;;;;;;;;6.00;4.00;;;;;;;;5070339;28;29757;-79
2023/12/28 01:40:31;;;;;;;;;16.00;11.33;;;;;;;;5072369;28;28489;-80
2023/12/28 01:42:56;;;;;;;;;12.00;10.33;;;;;;;;5078479;28;28764;-78
2023/12/28 01:45:21;;;;;;;;;17.33;14.00;;;;;;;;5073452;28;28623;-78
2023/12/28 01:47:48;;;;;;;;;6.00;5.33;;;;;;;;5083615;28;28664;-80
2023/12/28 01:50:14;;;;;;;;;8.00;8.00;;;;;;;;5064661;28;28999;-78
2023/12/28 01:52:40;;;;;;;;;6.33;6.33;;;;;;;;5064415;28;28535;-79
2023/12/28 01:55:05;;;;;;;;;7.33;5.33;;;;;;;;5073583;28;28628;-77
2023/12/28 01:57:30;;;;;;;;;6.67;6.33;;;;;;;;5084258;28;29893;-77
2023/12/28 01:59:58;;;;;;;;;5.67;5.67;;;;;;;;5069456;28;28515;-78
2023/12/28 02:02:24;;;;;;;;;15.67;12.67;;;;;;;;5070875;28;29639;-78
2023/12/28 02:04:49;;;;;;;;;7.33;5.67;;;;;;;;5078793;28;28849;-77
2023/12/28 02:07:14;;;;;;;;;6.00;4.67;;;;;;;;5069206;28;28817;-76
2023/12/28 02:09:40;;;;;;;;;7.67;6.33;;;;;;;;5076590;28;28505;-77
2023/12/28 02:12:05;;;;;;;;;6.33;5.33;;;;;;;;5052010;28;28810;-78
2023/12/28 02:14:30;;;;;;;;;5.67;5.67;;;;;;;;5074929;28;29866;-78
2023/12/28 02:16:56;;;;;;;;;3.67;3.67;;;;;;;;5073191;28;28410;-77
2023/12/28 02:19:40;;;;;;;;;9.00;7.00;;;;;;;;5076854;28;29117;-76
2023/12/28 02:22:06;;;;;;;;;8.33;7.33;;;;;;;;5081372;28;28532;-78
2023/12/28 02:24:31;;;;;;;;;7.33;6.33;;;;;;;;5060680;28;28532;-79
2023/12/28 02:26:56;;;;;;;;;11.00;7.67;;;;;;;;5083023;28;28532;-78
2023/12/28 02:29:21;;;;;;;;;8.00;4.67;;;;;;;;5069417;28;28564;-78
2023/12/28 02:32:06;;;;;;;;;11.00;9.67;;;;;;;;5052163;28;28509;-78
2023/12/28 02:34:34;;;;;;;;;8.33;6.67;;;;;;;;5076836;28;29677;-78
2023/12/28 02:37:01;;;;;;;;;8.33;5.33;;;;;;;;5065016;28;30932;-78
2023/12/28 02:39:28;;;;;;;;;5.00;5.00;;;;;;;;5069463;28;28387;-77
2023/12/28 02:41:55;;;;;;;;;16.33;11.67;;;;;;;;5069407;28;28901;-76
2023/12/28 02:44:20;;;;;;;;;15.67;14.00;;;;;;;;5068086;28;28858;-78
2023/12/28 02:46:46;;;;;;;;;12.00;8.33;;;;;;;;5069449;28;29008;-76
2023/12/28 02:49:11;;;;;;;;;6.67;5.67;;;;;;;;5051122;28;28758;-79
2023/12/28 02:51:37;;;;;;;;;8.00;8.00;;;;;;;;5050634;28;28805;-77
2023/12/28 02:54:02;;;;;;;;;11.67;8.00;;;;;;;;5075025;28;28854;-78
2023/12/28 02:56:27;;;;;;;;;9.67;6.67;;;;;;;;5070131;28;28526;-76
2023/12/28 02:58:52;;;;;;;;;6.00;6.00;;;;;;;;5070269;28;28519;-78
2023/12/28 03:01:18;;;;;;;;;4.67;4.67;;;;;;;;5052467;28;28467;-79
2023/12/28 03:03:43;;;;;;;;;4.33;4.33;;;;;;;;5069171;28;28477;-78
2023/12/28 03:06:08;;;;;;;;;4.00;2.67;;;;;;;;5072080;28;28587;-77
2023/12/28 03:08:33;;;;;;;;;3.67;3.00;;;;;;;;5070200;28;28735;-78
2023/12/28 03:10:59;;;;;;;;;7.00;6.67;;;;;;;;5068992;28;28451;-79
2023/12/28 03:13:24;;;;;;;;;6.33;5.00;;;;;;;;5051001;28;29983;-77
2023/12/28 03:15:49;;;;;;;;;2.67;2.67;;;;;;;;5066775;28;29518;-79
2023/12/28 03:18:14;;;;;;;;;6.33;5.67;;;;;;;;5068890;28;28878;-78
2023/12/28 03:20:40;;;;;;;;;6.00;4.00;;;;;;;;5067796;28;28484;-78
2023/12/28 03:23:05;;;;;;;;;3.00;3.00;;;;;;;;5071520;28;28568;-77
2023/12/28 03:25:30;;;;;;;;;5.67;3.00;;;;;;;;5069212;28;28556;-78
2023/12/28 03:27:55;;;;;;;;;6.33;5.67;;;;;;;;5069279;28;28641;-78
2023/12/28 03:30:20;;;;;;;;;3.67;2.67;;;;;;;;5048063;28;28756;-79
2023/12/28 03:32:46;;;;;;;;;2.33;2.33;;;;;;;;5049890;28;30638;-77
2023/12/28 03:35:11;;;;;;;;;3.00;3.00;;;;;;;;5069912;28;28689;-75
2023/12/28 03:37:36;;;;;;;;;5.67;4.00;;;;;;;;5072535;28;28766;-78
2023/12/28 03:40:02;;;;;;;;;3.33;3.33;;;;;;;;5058229;28;28989;-76
2023/12/28 03:42:27;;;;;;;;;3.67;3.00;;;;;;;;5075439;28;28435;-77
2023/12/28 03:44:52;;;;;;;;;3.00;3.00;;;;;;;;5072431;28;28473;-78
2023/12/28 03:47:17;;;;;;;;;6.33;4.67;;;;;;;;5068360;28;29100;-76
2023/12/28 03:49:42;;;;;;;;;5.33;4.00;;;;;;;;5075484;28;28742;-77
2023/12/28 03:52:08;;;;;;;;;3.33;2.67;;;;;;;;5068995;28;28813;-76
2023/12/28 03:54:33;;;;;;;;;5.67;5.67;;;;;;;;5072737;28;29696;-77
2023/12/28 03:56:58;;;;;;;;;4.00;3.67;;;;;;;;5056605;28;29549;-77
2023/12/28 03:59:23;;;;;;;;;6.00;6.00;;;;;;;;5082711;28;29210;-78
2023/12/28 04:01:48;;;;;;;;;4.33;4.33;;;;;;;;5068678;28;28543;-77
2023/12/28 04:04:14;;;;;;;;;5.67;5.67;;;;;;;;5067974;28;28854;-77
2023/12/28 04:06:41;;;;;;;;;4.67;4.67;;;;;;;;5066911;28;28537;-78
2023/12/28 04:09:06;;;;;;;;;6.00;6.00;;;;;;;;5071117;28;28666;-75
2023/12/28 04:11:32;;;;;;;;;5.00;5.00;;;;;;;;5055903;28;29631;-77
2023/12/28 04:13:57;;;;;;;;;8.00;5.67;;;;;;;;5069409;28;28566;-79
2023/12/28 04:16:22;;;;;;;;;5.33;4.33;;;;;;;;5072343;28;28465;-77
2023/12/28 04:18:47;;;;;;;;;5.67;3.67;;;;;;;;5068135;28;29106;-77
2023/12/28 04:21:13;;;;;;;;;5.33;5.33;;;;;;;;5070107;28;28841;-77
2023/12/28 04:23:42;;;;;;;;;4.67;4.67;;;;;;;;5068331;28;29209;-77
2023/12/28 04:26:07;;;;;;;;;6.00;5.67;;;;;;;;5051265;28;28912;-77
2023/12/28 04:28:34;;;;;;;;;8.33;6.00;;;;;;;;5068052;28;28568;-77
2023/12/28 04:31:01;;;;;;;;;7.67;5.67;;;;;;;;5073215;28;29175;-77
2023/12/28 04:33:26;;;;;;;;;5.67;5.33;;;;;;;;5071644;28;28806;-77
2023/12/28 04:35:52;;;;;;;;;5.67;5.67;;;;;;;;5068227;28;28696;-77
2023/12/28 04:38:17;;;;;;;;;5.67;4.33;;;;;;;;5068350;28;28511;-76
2023/12/28 04:40:42;;;;;;;;;5.67;5.67;;;;;;;;5068176;28;28556;-79
2023/12/28 04:43:07;;;;;;;;;7.00;4.33;;;;;;;;5067643;28;28552;-79
2023/12/28 04:45:32;;;;;;;;;5.00;3.33;;;;;;;;5068613;28;29005;-81
2023/12/28 04:47:58;;;;;;;;;7.00;5.67;;;;;;;;5073536;28;29021;-80
2023/12/28 04:50:23;;;;;;;;;6.33;3.67;;;;;;;;5065371;28;28526;-78
2023/12/28 04:52:48;;;;;;;;;5.33;4.33;;;;;;;;5073178;28;28869;-79
2023/12/28 04:55:13;;;;;;;;;4.33;4.33;;;;;;;;5068521;28;28548;-79
2023/12/28 04:57:40;;;;;;;;;4.00;3.00;;;;;;;;5070815;28;28537;-80
2023/12/28 05:00:06;;;;;;;;;5.33;3.33;;;;;;;;5066105;28;29046;-80
2023/12/28 05:02:31;;;;;;;;;6.00;3.00;;;;;;;;5073167;28;28468;-80
2023/12/28 05:04:56;;;;;;;;;4.33;4.00;;;;;;;;5065521;28;28548;-80
2023/12/28 05:07:21;;;;;;;;;5.67;4.00;;;;;;;;5069439;28;28424;-80
2023/12/28 05:09:47;;;;;;;;;5.67;5.00;;;;;;;;5069384;28;28655;-81
2023/12/28 05:12:12;;;;;;;;;4.33;3.67;;;;;;;;5069314;28;28567;-78
2023/12/28 05:14:37;;;;;;;;;6.33;4.00;;;;;;;;5077111;28;28581;-79
2023/12/28 05:17:02;;;;;;;;;5.67;2.67;;;;;;;;5075816;28;28557;-79
2023/12/28 05:19:29;;;;;;;;;5.67;3.67;;;;;;;;5059372;28;29460;-81
2023/12/28 05:21:54;;;;;;;;;5.00;3.00;;;;;;;;5060176;28;28959;-80
2023/12/28 05:24:19;;;;;;;;;4.33;3.33;;;;;;;;5052354;28;28906;-79
2023/12/28 05:26:44;;;;;;;;;3.67;3.67;;;;;;;;5072432;28;28939;-79
2023/12/28 05:29:09;;;;;;;;;4.67;3.00;;;;;;;;5059130;28;28684;-78
2023/12/28 05:31:35;;;;;;;;;5.33;4.33;;;;;;;;5073085;28;29863;-80
2023/12/28 05:34:00;;;;;;;;;4.00;3.00;;;;;;;;5071625;28;28448;-80
2023/12/28 05:36:25;;;;;;;;;5.67;5.67;;;;;;;;5069036;28;28415;-78
2023/12/28 05:38:51;;;;;;;;;4.00;4.00;;;;;;;;5072362;28;28910;-77
2023/12/28 05:41:16;;;;;;;;;4.67;3.33;;;;;;;;5053981;28;29130;-78
2023/12/28 05:43:41;;;;;;;;;6.00;4.00;;;;;;;;5076695;28;28388;-78
2023/12/28 05:46:08;;;;;;;;;2.67;2.67;;;;;;;;5071388;28;28950;-79
2023/12/28 05:48:33;;;;;;;;;4.00;3.00;;;;;;;;5069960;28;28535;-77
2023/12/28 05:50:58;;;;;;;;;4.00;4.00;;;;;;;;5052228;28;28590;-79
2023/12/28 05:53:24;;;;;;;;;4.67;3.67;;;;;;;;5076148;28;28515;-80
2023/12/28 05:55:49;;;;;;;;;4.67;4.67;;;;;;;;5076539;28;28591;-78
2023/12/28 05:58:14;;;;;;;;;3.00;3.00;;;;;;;;5060073;28;28465;-78
2023/12/28 06:00:39;;;;;;;;;5.33;4.33;;;;;;;;5060105;28;29812;-79
2023/12/28 06:03:05;;;;;;;;;4.67;3.33;;;;;;;;5070684;28;28066;-79
2023/12/28 06:05:30;;;;;;;;;3.00;3.00;;;;;;;;5071937;28;29223;-79
2023/12/28 06:07:55;;;;;;;;;4.00;4.00;;;;;;;;5071193;28;29518;-79
2023/12/28 06:10:21;;;;;;;;;7.33;4.67;;;;;;;;5068360;28;29253;-80
2023/12/28 06:12:46;;;;;;;;;5.67;4.33;;;;;;;;5078114;28;28608;-78
2023/12/28 06:15:11;;;;;;;;;8.33;4.00;;;;;;;;5065658;28;28437;-79
2023/12/28 06:17:36;;;;;;;;;8.00;4.33;;;;;;;;5069659;28;28517;-79
2023/12/28 06:20:04;;;;;;;;;5.67;4.33;;;;;;;;5069475;28;29348;-78
2023/12/28 06:22:29;;;;;;;;;7.33;4.67;;;;;;;;5069544;28;28928;-78
2023/12/28 06:24:55;;;;;;;;;7.33;3.33;;;;;;;;5051872;28;28540;-79
2023/12/28 06:27:20;;;;;;;;;6.67;4.67;;;;;;;;5050870;28;28575;-80
2023/12/28 06:29:45;;;;;;;;;7.00;5.00;;;;;;;;5069948;28;28943;-79
2023/12/28 06:32:11;;;;;;;;;4.00;4.00;;;;;;;;5052744;28;29061;-78
2023/12/28 06:34:36;;;;;;;;;4.67;3.67;;;;;;;;5051151;28;29074;-79
2023/12/28 06:37:01;;;;;;;;;2.33;2.00;;;;;;;;5076240;28;28658;-77
2023/12/28 06:39:26;;;;;;;;;6.67;3.67;;;;;;;;5070974;28;28666;-79
2023/12/28 06:41:52;;;;;;;;;10.00;5.67;;;;;;;;5081107;28;28591;-78
2023/12/28 06:44:17;;;;;;;;;3.67;3.00;;;;;;;;5072327;28;28588;-79
2023/12/28 06:46:42;;;;;;;;;5.67;3.67;;;;;;;;5085747;28;28264;-79
2023/12/28 06:49:07;;;;;;;;;5.00;3.00;;;;;;;;5086175;28;28463;-78
2023/12/28 06:51:33;;;;;;;;;3.00;2.00;;;;;;;;5079894;28;28797;-78
2023/12/28 06:53:58;;;;;;;;;3.33;3.00;;;;;;;;5080717;28;28458;-80
2023/12/28 06:56:24;;;;;;;;;7.67;5.33;;;;;;;;5060040;28;29391;-79
2023/12/28 06:58:49;;;;;;;;;3.00;3.00;;;;;;;;5051121;28;29730;-79
2023/12/28 07:01:14;;;;;;;;;5.33;2.00;;;;;;;;5052965;28;28560;-78
2023/12/28 07:03:40;;;;;;;;;5.00;4.00;;;;;;;;5082805;28;28651;-78
2023/12/28 07:06:05;;;;;;;;;7.00;4.33;;;;;;;;5051958;28;28476;-79
2023/12/28 07:08:30;;;;;;;;;6.00;6.00;;;;;;;;5069320;28;28839;-78
2023/12/28 07:10:57;;;;;;;;;5.33;3.00;;;;;;;;5054339;28;28853;-78
2023/12/28 07:13:22;;;;;;;;;3.33;3.33;;;;;;;;5081579;28;28446;-78
2023/12/28 07:15:47;;;;;;;;;8.33;5.00;;;;;;;;5066511;28;28639;-80
2023/12/28 07:18:13;;;;;;;;;6.00;5.00;;;;;;;;5050109;28;29858;-79
2023/12/28 07:20:38;;;;;;;;;4.33;4.00;;;;;;;;5064671;28;28545;-81
2023/12/28 07:23:04;;;;;;;;;4.00;3.00;;;;;;;;5069342;28;29857;-81
2023/12/28 07:25:29;;;;;;;;;6.00;5.00;;;;;;;;5057351;28;28678;-82
2023/12/28 07:27:54;;;;;;;;;8.00;5.00;;;;;;;;5042034;28;29796;-79
2023/12/28 07:30:19;;;;;;;;;7.67;6.00;;;;;;;;5067001;28;28784;-78
2023/12/28 07:32:45;;;;;;;;;5.00;5.00;;;;;;;;5046252;28;28736;-78
2023/12/28 07:35:11;;;;;;;;;11.67;6.00;;;;;;;;5057924;28;28897;-79
2023/12/28 07:37:36;;;;;;;;;6.67;5.67;;;;;;;;5068557;28;29379;-77
2023/12/28 07:40:05;;;;;;;;;7.67;5.00;;;;;;;;5063585;28;28856;-80
2023/12/28 07:42:30;;;;;;;;;6.67;5.67;;;;;;;;5055366;28;28719;-80
2023/12/28 07:44:55;;;;;;;;;3.00;3.00;;;;;;;;5037323;28;29692;-80
2023/12/28 07:47:21;;;;;;;;;6.67;5.00;;;;;;;;5068221;28;28518;-83
2023/12/28 07:49:46;;;;;;;;;10.67;9.00;;;;;;;;5070050;28;28451;-80
2023/12/28 07:52:11;;;;;;;;;13.00;8.33;;;;;;;;5065362;28;28836;-80
2023/12/28 07:54:37;;;;;;;;;7.33;4.67;;;;;;;;5064126;28;28545;-81
2023/12/28 07:57:02;;;;;;;;;4.00;4.00;;;;;;;;5059614;28;29327;-86
2023/12/28 07:59:27;;;;;;;;;4.67;4.67;;;;;;;;5052704;28;29102;-79
2023/12/28 08:01:53;;;;;;;;;6.67;5.67;;;;;;;;5071510;28;28741;-81
2023/12/28 08:04:18;;;;;;;;;11.67;6.00;;;;;;;;5064430;28;29294;-81
2023/12/28 08:06:44;;;;;;;;;4.67;4.00;;;;;;;;5068633;28;28438;-81
2023/12/28 08:09:09;;;;;;;;;4.33;3.67;;;;;;;;5069346;28;28745;-84
2023/12/28 08:11:35;;;;;;;;;6.00;5.00;;;;;;;;5051411;28;28979;-78
2023/12/28 08:14:00;;;;;;;;;9.00;5.00;;;;;;;;5068745;28;28663;-82
2023/12/28 08:16:26;;;;;;;;;4.67;4.67;;;;;;;;5055030;28;30009;-82
2023/12/28 08:18:51;;;;;;;;;5.67;5.67;;;;;;;;5069746;28;28780;-82
2023/12/28 08:21:16;;;;;;;;;6.00;4.33;;;;;;;;5070389;28;28778;-81
2023/12/28 08:23:42;;;;;;;;;7.67;5.33;;;;;;;;5050004;28;30442;-83
2023/12/28 08:26:07;;;;;;;;;4.33;3.33;;;;;;;;5064305;28;28931;-86
2023/12/28 08:28:33;;;;;;;;;5.67;4.33;;;;;;;;5067795;28;28698;-80
2023/12/28 08:30:58;;;;;;;;;4.00;3.00;;;;;;;;5069132;27;28730;-82
2023/12/28 08:33:23;;;;;;;;;7.00;5.00;;;;;;;;5069211;28;27959;-81
2023/12/28 08:35:48;;;;;;;;;9.33;3.00;;;;;;;;5061670;28;28532;-84
2023/12/28 08:38:14;;;;;;;;;6.00;4.00;;;;;;;;5041737;28;29981;-83
2023/12/28 08:40:39;;;;;;;;;3.67;2.67;;;;;;;;5073448;28;28678;-82
2023/12/28 08:43:05;;;;;;;;;7.00;5.67;;;;;;;;5071819;28;28164;-83
2023/12/28 08:45:31;;;;;;;;;11.67;11.67;;;;;;;;5072612;28;28982;-85
2023/12/28 08:47:57;;;;;;;;;10.00;6.67;;;;;;;;5071715;28;28447;-85
2023/12/28 08:50:23;;;;;;;;;13.67;8.67;;;;;;;;5055439;28;28551;-87
2023/12/28 08:52:48;;;;;;;;;2.33;2.00;;;;;;;;5082721;28;28418;-86
2023/12/28 08:55:13;;;;;;;;;8.00;5.67;;;;;;;;5061265;28;30982;-85
2023/12/28 08:57:39;;;;;;;;;6.00;4.67;;;;;;;;5071768;28;28509;-86
2023/12/28 09:00:05;;;;;;;;;7.67;4.67;;;;;;;;5076893;28;28300;-85
2023/12/28 09:02:30;;;;;;;;;8.33;4.67;;;;;;;;5073465;28;28056;-85
2023/12/28 09:04:57;;;;;;;;;5.00;3.00;;;;;;;;5072926;28;29842;-86
2023/12/28 09:07:23;;;;;;;;;4.00;4.00;;;;;;;;5068824;28;28906;-86
2023/12/28 09:09:48;;;;;;;;;5.00;4.00;;;;;;;;5054677;28;28522;-84
2023/12/28 09:12:13;;;;;;;;;3.33;3.33;;;;;;;;5076173;28;28971;-86
2023/12/28 09:14:39;;;;;;;;;8.00;2.67;;;;;;;;5090836;28;28639;-89
2023/12/28 09:17:04;;;;;;;;;5.67;3.00;;;;;;;;5067542;28;28539;-85
2023/12/28 09:19:33;;;;;;;;;6.00;4.33;;;;;;;;5067019;28;28504;-86
2023/12/28 09:21:59;;;;;;;;;4.33;3.00;;;;;;;;5072535;28;28557;-83
2023/12/28 09:24:24;;;;;;;;;4.33;4.00;;;;;;;;5068336;28;28552;-82
2023/12/28 09:26:50;;;;;;;;;3.33;3.33;;;;;;;;5055521;28;28890;-82
2023/12/28 09:29:16;;;;;;;;;8.00;4.33;;;;;;;;5058792;28;29149;-83
2023/12/28 09:31:41;;;;;;;;;7.00;5.00;;;;;;;;5056704;28;29208;-83
2023/12/28 09:34:06;;;;;;;;;3.33;3.33;;;;;;;;5064841;28;28520;-83
2023/12/28 09:36:31;;;;;;;;;3.00;3.00;;;;;;;;5070575;28;28513;-84
2023/12/28 09:38:57;;;;;;;;;11.33;7.33;;;;;;;;5054077;28;28224;-85
2023/12/28 09:41:25;;;;;;;;;4.00;4.00;;;;;;;;5074909;28;27910;-82
2023/12/28 09:43:54;;;;;;;;;5.00;4.00;;;;;;;;5077499;28;28784;-82
2023/12/28 09:46:19;;;;;;;;;3.00;3.00;;;;;;;;5083623;28;28680;-84
2023/12/28 09:48:45;;;;;;;;;4.00;3.00;;;;;;;;5060018;28;27882;-83
2023/12/28 09:51:10;;;;;;;;;3.00;2.00;;;;;;;;5059051;28;28889;-82
2023/12/28 09:53:36;;;;;;;;;4.33;4.33;;;;;;;;5069543;28;28599;-84
2023/12/28 09:56:02;;;;;;;;;4.33;4.00;;;;;;;;5069807;28;28612;-83
2023/12/28 09:58:29;;;;;;;;;1.67;1.67;;;;;;;;5052270;28;28562;-84
2023/12/28 10:00:56;;;;;;;;;7.00;4.67;;;;;;;;5050527;28;30335;-84
2023/12/28 10:03:21;;;;;;;;;5.33;5.33;;;;;;;;5071734;28;28893;-83
2023/12/28 10:05:47;;;;;;;;;1.00;1.00;;;;;;;;5058533;28;28855;-81
2023/12/28 10:08:13;;;;;;;;;2.00;2.00;;;;;;;;5059399;28;28542;-82
2023/12/28 10:10:39;;;;;;;;;5.33;5.33;;;;;;;;5079030;28;29032;-83
2023/12/28 10:13:05;;;;;;;;;3.33;3.33;;;;;;;;5055460;28;29777;-82
2023/12/28 10:15:31;;;;;;;;;2.75;2.75;;;;;;;;5073084;28;28517;-82
2023/12/28 10:17:56;;;;;;;;;5.33;3.67;;;;;;;;5056913;28;28801;-83
2023/12/28 10:20:21;;;;;;;;;6.33;4.33;;;;;;;;5070095;28;28501;-83
2023/12/28 10:22:47;;;;;;;;;3.33;3.33;;;;;;;;5056591;28;30066;-84
2023/12/28 10:25:12;;;;;;;;;4.00;4.00;;;;;;;;5053700;28;28655;-82
2023/12/28 10:27:39;;;;;;;;;4.00;4.00;;;;;;;;5071473;28;28659;-83
2023/12/28 10:30:05;;;;;;;;;3.33;3.33;;;;;;;;5055415;28;29581;-82
2023/12/28 10:32:30;;;;;;;;;9.33;6.33;;;;;;;;5069065;28;29194;-82
2023/12/28 10:34:55;;;;;;;;;4.00;4.00;;;;;;;;5070242;28;28506;-84
2023/12/28 10:37:21;;;;;;;;;5.33;4.00;;;;;;;;5067117;28;28922;-86
2023/12/28 10:39:49;;;;;;;;;4.75;3.50;;;;;;;;5080815;28;30198;-83
2023/12/28 10:42:31;;;;;;;;;4.00;4.00;;;;;;;;5078183;28;28774;-85
2023/12/28 10:45:50;;;;;;;;;;;;;;;;;;;;;
2023/12/28 10:48:48;;;;;;;;;3.25;2.25;;;;;;;;5016731;28;28029;-83
2023/12/28 10:52:00;;;;;;;;;1.00;1.00;;;;;;;;5040167;28;29045;-85
2023/12/28 10:54:36;;;;;;;;;3.25;3.25;;;;;;;;5032579;28;29107;-82
2023/12/28 10:57:23;;;;;;;;;3.75;2.75;;;;;;;;5083244;28;28970;-85
2023/12/28 11:03:15;;;;;;;;;5.00;3.25;;;;;;;;4987350;28;28905;-86
2023/12/28 11:05:52;;;;;;;;;3.60;3.00;;;;;;;;5075852;28;28597;-84
2023/12/28 11:11:40;;;;;;;;;4.25;2.75;;;;;;;;5006423;28;28458;-83
2023/12/28 11:14:08;;;;;;;;;4.75;2.00;;;;;;;;5072565;28;28446;-78
2023/12/28 11:16:46;;;;;;;;;4.00;4.00;;;;;;;;5080973;28;28989;-81
2023/12/28 11:19:47;;;;;;;;;4.00;3.00;;;;;;;;5075008;28;28520;-83
2023/12/28 11:25:55;;;;;;;;;3.00;3.00;;;;;;;;5007857;28;28940;-83
2023/12/28 11:31:54;;;;;;;;;5.25;3.75;;;;;;;;5031838;28;29105;-82
2023/12/28 11:35:11;;;;;;;;;;;;;;;;;;;;;
2023/12/28 11:38:09;;;;;;;;;;;;;;;;;;;;;
2023/12/28 11:43:53;;;;;;;;;5.25;3.75;;;;;;;;5076086;28;28690;-83
2023/12/28 11:46:55;;;;;;;;;3.00;3.00;;;;;;;;5037209;28;28998;-81
2023/12/28 11:49:37;;;;;;;;;3.33;3.33;;;;;;;;5063615;28;28724;-80
2023/12/28 11:52:11;;;;;;;;;11.67;5.67;;;;;;;;5073699;28;28694;-83
2023/12/28 11:57:49;;;;;;;;;8.00;5.67;;;;;;;;5069676;28;28619;-75
2023/12/28 12:34:58;;;;;;;;;1.00;1.00;;;;;;;;5055735;28;28596;-76
2023/12/28 12:37:26;;;;;;;;;3.33;3.00;;;;;;;;5050342;28;29495;-78
2023/12/28 12:39:54;;;;;;;;;6.00;5.00;;;;;;;;5073522;28;29130;-76
2023/12/28 12:42:22;;;;;;;;;5.25;3.25;;;;;;;;5049411;28;28438;-77
2023/12/28 12:44:48;;;;;;;;;6.67;5.00;;;;;;;;5068093;28;28562;-76
2023/12/28 12:47:15;;;;;;;;;5.67;3.33;;;;;;;;5048840;28;28658;-78
2023/12/28 12:49:43;;;;;;;;;5.33;4.00;;;;;;;;5053292;28;28878;-77
2023/12/28 12:52:08;;;;;;;;;2.33;2.33;;;;;;;;5068812;28;28588;-78
2023/12/28 12:54:33;;;;;;;;;8.67;4.67;;;;;;;;5068383;28;28454;-76
2023/12/28 12:56:59;;;;;;;;;6.33;3.00;;;;;;;;5052420;28;28524;-77
2023/12/28 12:59:25;;;;;;;;;7.67;4.33;;;;;;;;5044383;28;28979;-79
2023/12/28 13:01:53;;;;;;;;;8.00;6.75;;;;;;;;5069515;28;28575;-78
2023/12/28 13:04:18;;;;;;;;;3.33;3.33;;;;;;;;5073496;28;28894;-79
2023/12/28 13:06:43;;;;;;;;;4.00;4.00;;;;;;;;5075119;28;28525;-78
2023/12/28 13:09:10;;;;;;;;;7.33;3.33;;;;;;;;5051405;28;30224;-77
2023/12/28 13:11:36;;;;;;;;;4.00;4.00;;;;;;;;5069635;28;28841;-76
2023/12/28 13:14:01;;;;;;;;;7.67;4.33;;;;;;;;5074002;28;28775;-78
2023/12/28 13:16:26;;;;;;;;;5.67;5.67;;;;;;;;5074523;28;29266;-77
2023/12/28 13:19:13;;;;;;;;;5.33;3.67;;;;;;;;5073835;28;28818;-83
2023/12/28 13:21:43;;;;;;;;;4.50;3.50;;;;;;;;5063541;28;28775;-82
2023/12/28 13:24:08;;;;;;;;;4.00;3.00;;;;;;;;5076436;28;28546;-80
2023/12/28 13:26:33;;;;;;;;;5.00;4.00;;;;;;;;5073711;28;28876;-80
2023/12/28 13:28:59;;;;;;;;;4.00;2.67;;;;;;;;5075709;28;29149;-80
2023/12/28 13:31:30;;;;;;;;;6.25;4.25;;;;;;;;5055709;28;29153;-81
2023/12/28 13:33:56;;;;;;;;;5.00;4.67;;;;;;;;5072440;28;28949;-82
2023/12/28 13:36:21;;;;;;;;;7.33;5.00;;;;;;;;5052017;28;30187;-81
2023/12/28 13:38:47;;;;;;;;;3.00;3.00;;;;;;;;5073648;28;28996;-79
2023/12/28 13:41:13;;;;;;;;;17.33;16.33;;;;;;;;5069312;28;28753;-80
2023/12/28 13:43:38;;;;;;;;;4.33;4.33;;;;;;;;5079730;28;28517;-80
2023/12/28 13:46:04;;;;;;;;;10.67;7.00;;;;;;;;5060384;28;28659;-83
2023/12/28 13:48:32;;;;;;;;;5.00;4.00;;;;;;;;5060032;28;29689;-82
2023/12/28 13:51:07;;;;;;;;;;;;;;;;;;;;;
2023/12/28 13:53:39;;;;;;;;;11.00;10.00;;;;;;;;5079247;28;54079;-78
2023/12/28 13:56:10;;;;;;;;;5.00;3.67;;;;;;;;5050525;28;29879;-78
2023/12/28 13:58:35;;;;;;;;;5.00;4.00;;;;;;;;5069767;28;28957;-79
2023/12/28 14:01:01;;;;;;;;;13.67;9.00;;;;;;;;5073800;28;28798;-80
2023/12/28 14:03:27;;;;;;;;;8.33;7.67;;;;;;;;5069340;28;28635;-80
2023/12/28 14:06:20;;;;;;;;;9.33;8.33;;;;;;;;5055230;28;30320;-83
2023/12/28 14:08:46;;;;;;;;;7.67;5.00;;;;;;;;5047287;28;29723;-77
2023/12/28 14:11:16;;;;;;;;;13.67;12.33;;;;;;;;5050459;28;28850;-78
2023/12/28 14:13:42;;;;;;;;;30.67;19.67;;;;;;;;5051484;28;28952;-78
2023/12/28 14:16:14;;;;;;;;;6.67;4.33;;;;;;;;5056336;28;29982;-78
2023/12/28 14:18:41;;;;;;;;;6.33;5.00;;;;;;;;5072715;28;29847;-78
2023/12/28 14:21:07;;;;;;;;;2.33;2.33;;;;;;;;5047031;28;28729;-78
2023/12/28 14:23:32;;;;;;;;;4.00;3.00;;;;;;;;5061013;28;28573;-80
2023/12/28 14:25:58;;;;;;;;;4.00;4.00;;;;;;;;5073801;28;28978;-77
2023/12/28 14:28:24;;;;;;;;;5.67;2.33;;;;;;;;5071001;28;28778;-79
2023/12/28 14:30:52;;;;;;;;;2.00;2.00;;;;;;;;5070128;28;28639;-79
2023/12/28 14:33:18;;;;;;;;;5.33;3.00;;;;;;;;5069874;28;28631;-78
2023/12/28 14:35:43;;;;;;;;;6.00;4.00;;;;;;;;5075792;28;29667;-78
2023/12/28 14:38:13;;;;;;;;;7.00;7.00;;;;;;;;5074977;28;28735;-79
2023/12/28 14:40:38;;;;;;;;;7.33;6.00;;;;;;;;5053022;28;29075;-78
2023/12/28 14:43:06;;;;;;;;;5.67;5.33;;;;;;;;5070092;28;28960;-85
2023/12/28 14:45:32;;;;;;;;;7.33;5.00;;;;;;;;5072729;28;28881;-80
2023/12/28 14:48:00;;;;;;;;;5.33;5.33;;;;;;;;5066668;28;28594;-80
2023/12/28 14:50:25;;;;;;;;;3.67;3.67;;;;;;;;5069760;28;29258;-77
2023/12/28 14:53:02;;;;;;;;;3.67;3.00;;;;;;;;5077582;28;28616;-80
2023/12/28 15:01:39;;;;;;;;;7.00;5.00;;;;;;;;4945509;28;28475;-81
2023/12/28 15:04:04;;;;;;;;;8.00;6.00;;;;;;;;5050720;28;28536;-81
2023/12/28 15:06:29;;;;;;;;;8.67;5.00;;;;;;;;5069855;28;28798;-79
2023/12/28 15:08:54;;;;;;;;;5.33;4.33;;;;;;;;5073987;28;28825;-81
2023/12/28 15:11:20;;;;;;;;;5.67;3.33;;;;;;;;5069837;28;28635;-81
2023/12/28 15:13:45;;;;;;;;;5.33;4.33;;;;;;;;5078184;28;28513;-81
2023/12/28 15:16:11;;;;;;;;;2.67;2.67;;;;;;;;5075570;27;28603;-79
2023/12/28 15:18:37;;;;;;;;;5.33;3.00;;;;;;;;5073510;28;28910;-81
2023/12/28 15:21:03;;;;;;;;;5.00;2.67;;;;;;;;5075341;28;28858;-80
2023/12/28 15:23:29;;;;;;;;;9.00;5.00;;;;;;;;5059455;28;28666;-81
2023/12/28 15:25:57;;;;;;;;;5.00;4.00;;;;;;;;5066605;28;29000;-82
2023/12/28 15:28:23;;;;;;;;;10.00;6.00;;;;;;;;5066554;28;28399;-80
2023/12/28 15:30:51;;;;;;;;;3.00;2.00;;;;;;;;5076426;28;28786;-74
2023/12/28 15:33:22;;;;;;;;;7.67;6.33;;;;;;;;5080148;28;28582;-84
2023/12/28 15:36:08;;;;;;;;;5.00;3.00;;;;;;;;5073158;28;28552;-81
2023/12/28 15:38:36;;;;;;;;;6.33;6.33;;;;;;;;5084724;28;28698;-82
2023/12/28 15:41:25;;;;;;;;;2.00;2.00;;;;;;;;5069958;28;28797;-83
2023/12/28 15:43:50;;;;;;;;;5.67;5.67;;;;;;;;5075643;28;28428;-82
2023/12/28 15:46:30;;;;;;;;;12.33;7.33;;;;;;;;5075687;28;28436;-84